Latest Weather Observations for Kingscote

IDS60801

Issued at 8:51 pm CST Thursday 24 September 2020 (issued every 10 minutes, with the page automatically refreshed every 10 minutes)

About weather observations | Map of weather stations | Latest weather observations for SA | Other Formats
Station Details ID: 022841 Name: KINGSCOTE AERO Lat: -35.71 Lon: 137.52 Height: 6.23 m
Data from the previous 72 hours. | See also: Recent months at Kingscote
Date/Time
CST
Temp
°C
App
Temp
°C
Dew
Point
°C
Rel
Hum
%
Delta-T
°C
Wind Press
QNH
hPa
Press
MSL
hPa
Rain since
9am
mm
Dir  Spd
km/h
Gust
km/h
Spd
kts
Gust
kts
24/08:30pm 5.9 2.1 3.7 86 0.9 W 13 17 7 9 1009.6 1009.6 0.4
24/08:00pm 6.1 2.3 3.9 86 0.9 W 13 19 7 10 1009.4 1009.4 0.4
24/07:30pm 6.2 3.3 4.4 88 0.8 WNW 9 11 5 6 1009.6 1009.6 0.4
24/07:00pm 7.1 3.5 4.8 85 1.0 W 13 17 7 9 1009.5 1009.5 0.4
24/06:30pm 7.6 2.8 4.7 82 1.3 WSW 19 26 10 14 1009.5 1009.5 0.4
24/06:00pm 9.0 4.2 5.4 78 1.6 WSW 20 30 11 16 1009.3 1009.3 0.4
24/05:30pm 9.3 3.7 5.3 76 1.8 SW 24 39 13 21 1009.1 1009.1 0.4
24/05:00pm 10.5 6.0 5.9 73 2.1 WSW 19 26 10 14 1008.9 1008.9 0.4
24/04:30pm 10.6 4.1 4.5 66 2.7 WSW 28 39 15 21 1008.9 1008.9 0.4
24/04:00pm 11.5 5.3 6.2 70 2.5 WSW 28 39 15 21 1008.7 1008.7 0.4
24/03:30pm 11.9 4.6 5.5 65 3.0 WSW 33 44 18 24 1008.7 1008.7 0.2
24/03:04pm 12.2 5.9 5.8 65 3.0 WSW 28 46 15 25 1008.8 1008.8 0.2
24/03:00pm 12.5 6.4 6.8 68 2.7 W 28 43 15 23 1008.9 1008.9 0.2
24/02:38pm 12.4 6.3 6.5 67 2.8 WSW 28 48 15 26 1009.1 1009.1 0.2
24/02:30pm 12.6 6.6 7.1 69 2.7 WSW 28 39 15 21 1009.1 1009.1 0.2
24/02:03pm 11.0 4.7 7.5 79 1.7 WSW 30 48 16 26 1009.4 1009.4 0.2
24/02:00pm 11.1 4.3 7.6 79 1.7 WSW 33 48 18 26 1009.4 1009.4 0.2
24/01:30pm 13.9 7.4 6.5 61 3.6 WSW 30 43 16 23 1009.4 1009.4 0.2
24/01:00pm 13.4 7.5 7.4 67 2.9 W 28 39 15 21 1009.8 1009.8 0.2
24/12:30pm 13.6 7.8 8.0 69 2.8 W 28 43 15 23 1010.3 1010.3 0.2
24/12:00pm 12.8 6.4 8.5 75 2.1 WNW 32 56 17 30 1011.0 1011.0 0.2
24/11:42am 12.6 5.8 7.7 72 2.4 WNW 33 59 18 32 1011.4 1011.4 0.2
24/11:30am 13.4 8.6 10.2 81 1.7 WNW 26 39 14 21 1011.5 1011.5 0.2
24/11:00am 11.1 5.0 8.3 83 1.4 WNW 30 44 16 24 1012.3 1012.3 0.2
24/10:44am 13.4 6.7 7.2 66 3.0 NW 32 52 17 28 1012.1 1012.1 0.0
24/10:30am 13.8 7.4 7.1 64 3.3 WNW 30 35 16 19 1012.3 1012.3 0.0
24/10:00am 14.1 7.4 8.1 67 3.0 NW 33 46 18 25 1013.1 1013.1 0.0
24/09:44am 13.9 8.2 8.3 69 2.8 NW 28 46 15 25 1013.4 1013.4 0.0
24/09:30am 13.8 8.4 9.5 75 2.2 NW 28 41 15 22 1013.7 1013.7 0.0
24/09:00am 11.8 7.8 8.1 78 1.8 NW 19 30 10 16 1014.3 1014.3 0.4
24/08:30am 10.8 9.3 8.4 85 1.2 NNW 6 7 3 4 1014.7 1014.7 0.4
24/08:00am 9.7 7.8 7.6 87 1.0 NNW 7 9 4 5 1015.0 1015.0 0.4
24/07:30am 9.1 6.8 7.5 90 0.8 WNW 9 11 5 6 1015.3 1015.3 0.4
24/07:00am 8.1 5.8 7.3 95 0.4 WNW 9 13 5 7 1015.5 1015.5 0.4
24/06:30am 5.7 2.8 4.8 94 0.4 W 9 9 5 5 1015.6 1015.6 0.4
24/06:00am 6.6 3.6 6.2 97 0.2 NW 11 17 6 9 1015.7 1015.7 0.4
24/05:30am 3.8 2.3 2.9 94 0.4 CALM 0 0 0 0 1015.7 1015.7 0.0
24/05:00am 5.7 3.2 5.0 95 0.3 N 7 9 4 5 1015.8 1015.8 0.0
24/04:30am 4.8 3.4 3.8 93 0.4 CALM 0 0 0 0 1016.1 1016.1 0.0
24/04:00am 5.4 3.4 4.4 93 0.4 NW 4 9 2 5 1016.4 1016.4 0.0
24/03:30am 6.3 3.5 5.3 93 0.4 NW 9 11 5 6 1016.9 1016.9 0.0
24/03:00am 6.5 4.2 5.6 94 0.4 NNW 7 13 4 7 1017.0 1017.0 0.0
24/02:30am 3.4 0.5 2.4 93 0.4 WNW 7 9 4 5 1017.7 1017.7 0.0
24/02:00am 4.2 2.7 3.0 92 0.5 CALM 0 0 0 0 1018.0 1018.0 0.0
24/01:30am 5.0 2.5 3.7 91 0.5 N 6 7 3 4 1018.3 1018.3 0.0
24/01:00am 5.5 3.1 4.3 92 0.5 NNW 6 7 3 4 1018.8 1018.8 0.0
24/12:30am 5.0 2.5 4.0 93 0.4 SW 6 7 3 4 1019.2 1019.2 0.0
24/12:00am 5.3 2.7 4.3 93 0.4 WNW 7 9 4 5 1019.3 1019.3 0.0
 
Date/Time
CST
Temp
°C
App
Temp
°C
Dew
Point
°C
Rel
Hum
%
Delta-T
°C
Wind Press
QNH
hPa
Press
MSL
hPa
Rain since
9am
mm
Dir  Spd
km/h
Gust
km/h
Spd
kts
Gust
kts
23/11:30pm 5.3 4.0 4.0 91 0.5 CALM 0 0 0 0 1019.6 1019.6 0.0
23/11:00pm 5.8 4.5 4.1 89 0.7 CALM 0 0 0 0 1019.7 1019.7 0.0
23/10:30pm 6.4 5.2 4.4 87 0.9 CALM 0 0 0 0 1020.1 1020.1 0.0
23/10:00pm 7.0 4.1 4.8 86 1.0 NW 9 11 5 6 1020.5 1020.5 0.0
23/09:30pm 7.1 3.1 5.1 87 0.9 NW 15 17 8 9 1020.8 1020.8 0.0
23/09:00pm 7.6 4.0 5.1 84 1.1 W 13 17 7 9 1020.9 1020.9 0.0
23/08:30pm 7.7 4.2 5.3 85 1.1 W 13 15 7 8 1020.8 1020.8 0.0
23/08:00pm 7.6 4.4 5.1 84 1.1 W 11 13 6 7 1020.7 1020.7 0.0
23/07:30pm 8.1 5.0 5.6 84 1.1 W 11 13 6 7 1020.6 1020.6 0.0
23/07:00pm 8.2 4.7 5.3 82 1.3 WSW 13 15 7 8 1020.4 1020.4 0.0
23/06:30pm 9.5 6.1 5.9 78 1.6 WSW 13 22 7 12 1020.1 1020.1 0.0
23/06:00pm 10.3 6.1 5.5 72 2.2 WSW 17 22 9 12 1020.0 1020.0 0.0
23/05:30pm 11.7 5.7 5.3 65 2.9 SW 26 33 14 18 1019.7 1019.7 0.0
23/05:00pm 12.4 7.0 6.5 67 2.8 SW 24 35 13 19 1019.4 1019.4 0.0
23/04:30pm 13.8 7.6 6.2 60 3.6 SW 28 41 15 22 1019.2 1019.2 0.0
23/04:00pm 14.0 7.8 7.8 66 3.1 SW 30 41 16 22 1019.1 1019.1 0.0
23/03:30pm 13.6 7.6 7.2 65 3.1 SW 28 35 15 19 1019.1 1019.1 0.0
23/03:17pm 13.6 7.4 6.0 60 3.6 SW 28 46 15 25 1019.1 1019.1 0.0
23/03:00pm 13.8 7.4 8.4 70 2.7 SW 32 41 17 22 1019.1 1019.1 0.0
23/02:30pm 13.7 6.8 6.3 61 3.5 SW 32 43 17 23 1019.0 1019.0 0.0
23/02:00pm 13.5 7.1 7.1 65 3.1 SW 30 43 16 23 1019.0 1019.0 0.0
23/01:30pm 13.7 7.1 8.5 71 2.6 SW 33 43 18 23 1019.1 1019.1 0.0
23/01:00pm 13.6 7.0 7.6 67 2.9 WSW 32 41 17 22 1019.2 1019.2 0.0
23/12:45pm 12.3 6.4 7.4 72 2.4 WSW 28 52 15 28 1019.3 1019.3 0.0
23/12:30pm 12.9 6.2 7.4 69 2.7 WSW 32 46 17 25 1019.3 1019.3 0.0
23/12:00pm 12.0 5.6 8.7 80 1.6 SW 32 44 17 24 1019.5 1019.5 0.0
23/11:30am 14.6 7.9 7.2 61 3.6 SW 32 43 17 23 1019.0 1019.0 0.0
23/11:00am 13.7 6.7 6.8 63 3.3 SW 33 46 18 25 1019.2 1019.2 0.0
23/10:44am 14.7 9.1 8.9 68 2.9 SW 28 46 15 25 1019.3 1019.3 0.0
23/10:30am 15.0 8.7 9.1 68 3.0 WSW 32 46 17 25 1019.3 1019.3 0.0
23/10:00am 13.6 9.3 9.3 75 2.2 SW 22 32 12 17 1019.2 1019.2 0.0
23/09:44am 11.6 5.1 8.3 80 1.6 SW 32 46 17 25 1019.2 1019.2 0.0
23/09:37am 12.5 5.9 7.8 73 2.3 SW 32 46 17 25 1019.0 1019.0 0.0
23/09:30am 13.6 7.5 8.4 71 2.6 WSW 30 39 16 21 1019.0 1019.0 0.0
23/09:00am 11.8 6.0 8.1 78 1.8 SW 28 39 15 21 1018.9 1018.9 5.2
23/08:30am 12.7 7.9 9.0 78 1.9 WSW 24 35 13 19 1018.4 1018.4 5.2
23/08:00am 11.6 7.7 8.6 82 1.5 WSW 19 26 10 14 1018.1 1018.1 5.2
23/07:30am 10.3 6.3 8.2 87 1.0 WSW 19 24 10 13 1018.0 1018.0 5.2
23/07:00am 9.0 6.0 7.5 90 0.7 W 13 17 7 9 1017.7 1017.7 5.2
23/06:30am 8.3 4.8 7.1 92 0.6 W 15 20 8 11 1017.4 1017.4 5.2
23/06:00am 8.2 3.8 6.7 90 0.7 WSW 19 24 10 13 1017.1 1017.1 5.2
23/05:30am 7.5 4.2 6.3 92 0.5 W 13 15 7 8 1016.7 1016.7 5.2
23/05:00am 7.8 4.2 6.6 92 0.6 W 15 19 8 10 1016.4 1016.4 5.2
23/04:30am 7.6 4.4 6.7 94 0.4 W 13 17 7 9 1016.1 1016.1 5.2
23/04:00am 7.0 4.4 5.9 93 0.5 W 9 13 5 7 1016.1 1016.1 5.2
23/03:30am 7.4 4.5 6.3 93 0.5 W 11 15 6 8 1016.0 1016.0 5.2
23/03:00am 7.6 4.7 6.4 92 0.5 W 11 15 6 8 1016.0 1016.0 5.2
23/02:30am 7.8 4.9 6.6 92 0.6 W 11 13 6 7 1016.0 1016.0 5.2
23/02:00am 8.4 4.8 6.9 90 0.7 W 15 17 8 9 1016.0 1016.0 5.2
23/01:30am 8.3 5.2 7.2 93 0.5 W 13 17 7 9 1016.1 1016.1 5.2
23/01:00am 7.9 5.8 6.7 92 0.6 WSW 7 9 4 5 1016.2 1016.2 5.2
23/12:30am 8.5 5.3 7.0 90 0.7 W 13 15 7 8 1016.1 1016.1 5.2
23/12:00am 9.0 5.5 7.3 89 0.8 W 15 20 8 11 1016.1 1016.1 5.2
 
Date/Time
CST
Temp
°C
App
Temp
°C
Dew
Point
°C
Rel
Hum
%
Delta-T
°C
Wind Press
QNH
hPa
Press
MSL
hPa
Rain since
9am
mm
Dir  Spd
km/h
Gust
km/h
Spd
kts
Gust
kts
22/11:30pm 8.9 5.5 7.5 91 0.7 WNW 15 17 8 9 1016.1 1016.1 5.2
22/11:00pm 8.7 5.6 7.3 91 0.7 W 13 17 7 9 1016.2 1016.2 5.2
22/10:30pm 8.6 5.9 7.4 92 0.6 W 11 13 6 7 1016.1 1016.1 5.2
22/10:00pm 8.8 6.1 7.3 90 0.7 W 11 13 6 7 1016.1 1016.1 5.2
22/09:30pm 9.5 6.5 7.8 89 0.8 WNW 13 17 7 9 1016.1 1016.1 5.2
22/09:00pm 9.7 7.2 8.0 89 0.8 WNW 11 13 6 7 1015.9 1015.9 5.2
22/08:30pm 9.8 7.7 8.1 89 0.8 NW 9 11 5 6 1015.8 1015.8 5.2
22/08:00pm 9.7 7.5 7.8 88 0.9 NW 9 11 5 6 1015.4 1015.4 5.2
22/07:30pm 10.3 7.4 8.1 86 1.1 NW 13 17 7 9 1015.2 1015.2 5.2
22/07:00pm 11.0 7.4 8.4 84 1.3 WNW 17 22 9 12 1014.7 1014.7 5.2
22/06:30pm 11.4 7.2 8.4 82 1.5 WNW 20 26 11 14 1014.4 1014.4 5.2
22/06:00pm 12.4 8.1 7.9 74 2.2 W 20 32 11 17 1014.1 1014.1 5.2
22/05:30pm 12.8 10.6 9.4 80 1.7 W 11 15 6 8 1013.7 1013.7 5.2
22/05:00pm 13.3 9.0 9.5 78 1.9 WSW 22 28 12 15 1013.3 1013.3 5.2
22/04:30pm 13.4 9.6 9.8 79 1.8 W 20 33 11 18 1013.0 1013.0 5.2
22/04:03pm 13.7 7.9 9.4 75 2.2 WNW 30 56 16 30 1012.6 1012.6 4.6
22/04:00pm 14.3 9.0 9.7 74 2.4 WNW 28 39 15 21 1012.6 1012.6 4.6
22/03:30pm 14.3 10.1 9.9 75 2.3 W 22 35 12 19 1012.5 1012.5 4.6
22/03:00pm 13.2 8.4 10.4 83 1.5 W 26 43 14 23 1012.2 1012.2 4.6
22/02:47pm 12.7 8.4 9.5 81 1.6 WSW 22 30 12 16 1012.1 1012.1 4.4
22/02:30pm 12.7 6.5 9.2 79 1.8 WSW 32 43 17 23 1012.0 1012.0 3.2
22/02:29pm 12.8 6.6 9.3 79 1.8 W 32 43 17 23 1012.0 1012.0 3.2
22/02:00pm 16.7 11.4 9.9 64 3.6 WNW 28 41 15 22 1011.4 1011.4 1.4
22/01:30pm 15.9 10.4 9.3 65 3.4 WNW 28 37 15 20 1011.3 1011.3 1.4
22/01:10pm 13.4 7.9 10.4 82 1.6 W 30 48 16 26 1011.5 1011.5 1.4
22/01:00pm 14.1 8.5 8.7 70 2.7 W 28 37 15 20 1011.4 1011.4 1.2
22/12:30pm 13.4 9.8 10.4 82 1.6 WSW 20 26 11 14 1011.5 1011.5 1.2
22/12:00pm 15.9 11.3 10.9 72 2.7 WNW 26 37 14 20 1011.3 1011.3 0.4
22/11:30am 15.5 11.5 10.5 72 2.6 W 22 32 12 17 1011.0 1011.0 0.4
22/11:00am 13.0 8.7 10.7 86 1.2 WNW 24 37 13 20 1011.1 1011.1 0.4
22/10:30am 15.7 10.7 11.1 74 2.5 W 28 39 15 21 1010.7 1010.7 0.2
22/10:00am 14.4 8.6 9.4 72 2.6 W 30 43 16 23 1010.6 1010.6 0.2
22/09:30am 13.0 9.4 10.5 85 1.3 WSW 20 26 11 14 1010.4 1010.4 0.2
22/09:00am 13.3 7.1 9.5 78 1.9 W 32 50 17 27 1009.9 1009.9 6.0
22/08:55am 14.1 7.8 8.9 71 2.6 W 32 50 17 27 1009.7 1009.7 6.0
22/08:30am 14.0 8.6 9.6 75 2.3 W 28 43 15 23 1009.4 1009.4 6.0
22/08:00am 13.0 7.6 9.4 79 1.8 WNW 28 41 15 22 1008.8 1008.8 6.0
22/07:30am 11.7 7.4 9.4 86 1.2 WNW 22 35 12 19 1008.4 1008.4 6.0
22/07:00am 11.7 6.4 8.4 80 1.6 WNW 26 41 14 22 1007.8 1007.8 5.8
22/06:30am 11.7 5.8 9.1 84 1.3 WNW 30 39 16 21 1007.4 1007.4 5.8
22/06:00am 11.9 5.8 8.4 79 1.7 WNW 30 39 16 21 1007.0 1007.0 5.8
22/05:41am 11.7 6.1 8.6 81 1.5 WNW 28 46 15 25 1006.6 1006.6 5.8
22/05:30am 11.3 6.0 8.3 82 1.5 WNW 26 41 14 22 1006.4 1006.4 5.8
22/05:00am 11.2 6.7 8.6 84 1.3 W 22 32 12 17 1006.2 1006.2 5.8
22/04:30am 10.1 4.3 8.0 87 1.0 WNW 28 43 15 23 1006.0 1006.0 5.8
22/04:06am 11.3 5.6 8.2 81 1.5 WNW 28 46 15 25 1005.8 1005.8 5.4
22/04:00am 11.1 5.4 8.3 83 1.4 WNW 28 41 15 22 1005.7 1005.7 5.4
22/03:30am 10.9 5.7 8.7 86 1.1 WNW 26 44 14 24 1005.6 1005.6 5.4
22/03:00am 11.0 6.6 8.9 87 1.0 WNW 22 32 12 17 1005.6 1005.6 5.4
22/02:30am 11.3 5.8 9.2 87 1.1 WNW 28 43 15 23 1005.7 1005.7 5.2
22/02:00am 11.3 4.7 8.5 83 1.4 WNW 33 46 18 25 1005.8 1005.8 4.6
22/01:30am 11.6 6.6 8.1 79 1.7 WNW 24 44 13 24 1005.9 1005.9 4.6
22/01:00am 11.0 5.6 8.2 83 1.4 WNW 26 41 14 22 1006.1 1006.1 4.4
22/12:30am 11.7 5.5 7.8 77 1.9 WNW 30 41 16 22 1005.9 1005.9 4.2
22/12:00am 11.4 3.0 7.3 76 2.0 WNW 41 56 22 30 1005.8 1005.8 4.2
 
Date/Time
CST
Temp
°C
App
Temp
°C
Dew
Point
°C
Rel
Hum
%
Delta-T
°C
Wind Press
QNH
hPa
Press
MSL
hPa
Rain since
9am
mm
Dir  Spd
km/h
Gust
km/h
Spd
kts
Gust
kts
21/11:48pm 11.6 4.5 7.9 78 1.8 WNW 35 63 19 34 1006.0 1006.0 4.2
21/11:30pm 11.7 6.0 8.4 80 1.6 WNW 28 43 15 23 1005.8 1005.8 4.2
21/11:00pm 11.3 5.6 8.5 83 1.4 WNW 28 43 15 23 1005.9 1005.9 4.2
21/10:30pm 11.3 5.3 8.5 83 1.4 WNW 30 52 16 28 1005.9 1005.9 3.8
21/10:25pm 11.7 5.1 8.7 82 1.5 WNW 33 52 18 28 1006.0 1006.0 3.8
21/10:00pm 12.4 6.2 7.9 74 2.2 WNW 30 41 16 22 1006.0 1006.0 3.8
21/09:30pm 12.0 6.1 7.5 74 2.2 WNW 28 46 15 25 1005.9 1005.9 3.8
21/09:00pm 11.7 5.5 7.8 77 1.9 WNW 30 41 16 22 1005.6 1005.6 3.8

Other formats

Comma delimited format used in spreadsheet applications
http://www.bom.gov.au/fwo/IDS60801/IDS60801.95807.axf

JavaScript Object Notation format (JSON) in row-major order
http://www.bom.gov.au/fwo/IDS60801/IDS60801.95807.json

Data quality

Most of these data are generated automatically and are frequently updated. Quality checks on data are not normally performed. It is possible for incorrect values to appear. Refer to information at About Latest Weather Observations and please check the disclaimer before using these data.